createdAt,value
2018-06-05T00:02:17.458Z,99844.73
2018-06-05T00:05:20.361Z,99845.12
2018-06-05T00:08:23.280Z,99844.02
2018-06-05T00:11:26.226Z,99844.11
2018-06-05T00:14:30.032Z,99843.53
2018-06-05T00:17:32.956Z,99838.48
2018-06-05T00:20:35.907Z,99828.00
2018-06-05T00:23:38.843Z,99828.66
2018-06-05T00:26:41.829Z,99829.93
2018-06-05T00:29:44.801Z,99831.44
2018-06-05T00:32:47.789Z,99831.46
2018-06-05T00:35:50.853Z,99836.00
2018-06-05T00:38:53.774Z,99843.47
2018-06-05T00:41:56.680Z,99840.87
2018-06-05T00:44:59.707Z,99840.52
2018-06-05T00:48:02.625Z,99842.86
2018-06-05T00:51:22.727Z,99833.22
2018-06-05T00:54:25.625Z,99840.11
2018-06-05T00:57:28.558Z,99826.23
2018-06-05T01:00:31.620Z,99821.69
2018-06-05T01:03:34.638Z,99822.46
2018-06-05T01:06:37.705Z,99823.48
2018-06-05T01:09:40.652Z,99814.94
2018-06-05T01:12:43.535Z,99826.50
2018-06-05T01:15:46.529Z,99821.84
2018-06-05T01:18:49.553Z,99824.28
2018-06-05T01:21:53.196Z,99820.57
2018-06-05T01:24:56.740Z,99819.35
2018-06-05T01:27:59.805Z,99817.77
2018-06-05T01:31:02.737Z,99823.38
2018-06-05T01:34:05.649Z,99824.86
2018-06-05T01:37:08.593Z,99820.95
2018-06-05T01:40:13.446Z,99826.61
2018-06-05T01:43:16.616Z,99822.77
2018-06-05T01:46:22.034Z,99821.47
2018-06-05T01:49:29.623Z,99827.70
2018-06-05T01:52:34.585Z,99819.67
2018-06-05T01:55:37.515Z,99823.66
2018-06-05T01:58:40.805Z,99823.76
2018-06-05T02:01:43.965Z,99821.99
2018-06-05T02:04:46.911Z,99818.06
2018-06-05T02:07:49.812Z,99814.92
2018-06-05T02:10:52.836Z,99819.52
2018-06-05T02:13:55.749Z,99815.06
2018-06-05T02:16:58.614Z,99815.44
2018-06-05T02:20:01.548Z,99820.28
2018-06-05T02:23:04.501Z,99820.59
2018-06-05T02:26:07.415Z,99815.64
2018-06-05T02:29:10.330Z,99818.70
2018-06-05T02:32:13.256Z,99821.31
2018-06-05T02:35:16.177Z,99825.13
2018-06-05T02:38:19.272Z,99818.41
2018-06-05T02:41:22.170Z,99819.02
2018-06-05T02:44:25.072Z,99822.25
2018-06-05T02:47:28.992Z,99821.79
2018-06-05T02:50:36.022Z,99825.86
2018-06-05T02:53:43.221Z,99826.37
2018-06-05T02:56:50.309Z,99822.55
2018-06-05T02:59:53.744Z,99823.04
2018-06-05T03:02:58.258Z,99827.59
2018-06-05T03:06:02.901Z,99820.57
2018-06-05T03:09:08.244Z,99820.28
2018-06-05T03:12:11.555Z,99824.53
2018-06-05T03:15:28.253Z,99833.41
2018-06-05T03:18:34.353Z,99841.67
2018-06-05T03:21:38.185Z,99839.98
2018-06-05T03:24:41.614Z,99835.95
2018-06-05T03:27:51.690Z,99834.51
2018-06-05T03:30:55.656Z,99844.66
2018-06-05T03:33:59.605Z,99839.14
2018-06-05T03:37:03.391Z,99845.70
2018-06-05T03:40:07.970Z,99847.59
2018-06-05T03:43:12.482Z,99845.98
2018-06-05T03:46:16.730Z,99847.66
2018-06-05T03:49:19.687Z,99853.16
2018-06-05T03:52:22.577Z,99847.33
2018-06-05T03:55:25.521Z,99841.92
2018-06-05T03:58:28.396Z,99842.83
2018-06-05T04:01:31.429Z,99851.80
2018-06-05T04:04:35.148Z,99850.70
2018-06-05T04:07:38.080Z,99840.59
2018-06-05T04:10:41.012Z,99837.83
2018-06-05T04:13:44.235Z,99841.90
2018-06-05T04:16:49.921Z,99844.91
2018-06-05T04:19:53.104Z,99846.13
2018-06-05T04:22:56.080Z,99845.01
2018-06-05T04:25:58.993Z,99849.62
2018-06-05T04:29:02.008Z,99858.49
2018-06-05T04:32:05.008Z,99854.81
2018-06-05T04:35:07.887Z,99853.72
2018-06-05T04:38:11.073Z,99853.40
2018-06-05T04:41:14.896Z,99858.88
2018-06-05T04:44:17.821Z,99864.03
2018-06-05T04:47:20.719Z,99866.52
2018-06-05T04:50:23.999Z,99864.47
2018-06-05T04:53:26.945Z,99865.01
2018-06-05T04:56:30.021Z,99866.89
2018-06-05T04:59:32.962Z,99868.56
2018-06-05T05:02:35.937Z,99869.08
2018-06-05T05:05:38.955Z,99865.75
2018-06-05T05:08:42.068Z,99867.95
2018-06-05T05:11:45.546Z,99876.16
2018-06-05T05:14:48.465Z,99872.80
2018-06-05T05:17:51.408Z,99874.84
2018-06-05T05:20:54.498Z,99874.35
2018-06-05T05:23:57.439Z,99874.45
2018-06-05T05:27:00.344Z,99876.50
2018-06-05T05:30:03.802Z,99873.36
2018-06-05T05:33:06.808Z,99877.88
2018-06-05T05:36:09.894Z,99864.02
2018-06-05T05:39:12.796Z,99867.94
2018-06-05T05:42:16.387Z,99867.05
2018-06-05T05:45:19.617Z,99870.31
2018-06-05T05:48:22.635Z,99871.44
2018-06-05T05:51:26.471Z,99874.26
2018-06-05T05:54:29.449Z,99870.83
2018-06-05T05:57:32.427Z,99876.77
2018-06-05T06:00:35.361Z,99876.33
2018-06-05T06:03:38.280Z,99872.00
2018-06-05T06:06:41.221Z,99876.66
2018-06-05T06:09:44.882Z,99885.67
2018-06-05T06:12:47.831Z,99888.43
2018-06-05T06:15:50.817Z,99888.86
2018-06-05T06:18:53.701Z,99888.17
2018-06-05T06:21:56.644Z,99888.77
2018-06-05T06:24:59.639Z,99892.09
2018-06-05T06:28:02.533Z,99893.19
2018-06-05T06:31:05.541Z,99900.94
2018-06-05T06:34:08.449Z,99904.36
2018-06-05T06:37:11.354Z,99909.64
2018-06-05T06:40:14.277Z,99909.00
2018-06-05T06:43:17.192Z,99910.84
2018-06-05T06:46:20.153Z,99914.55
2018-06-05T06:49:23.116Z,99911.69
2018-06-05T06:52:26.002Z,99913.33
2018-06-05T06:55:28.973Z,99922.91
2018-06-05T06:58:32.000Z,99912.09
2018-06-05T07:01:34.930Z,99918.98
2018-06-05T07:04:37.833Z,99914.30
2018-06-05T07:07:40.759Z,99915.52
2018-06-05T07:10:43.650Z,99912.82
2018-06-05T07:13:46.537Z,99914.55
2018-06-05T07:16:49.469Z,99918.81
2018-06-05T07:19:52.480Z,99914.95
2018-06-05T07:22:55.399Z,99923.26
2018-06-05T07:25:58.332Z,99924.33
2018-06-05T07:29:01.249Z,99918.41
2018-06-05T07:32:04.215Z,99921.36
2018-06-05T07:35:07.163Z,99926.70
2018-06-05T07:38:10.096Z,99924.59
2018-06-05T07:41:12.992Z,99921.56
2018-06-05T07:44:15.932Z,99927.03
2018-06-05T07:47:18.858Z,99926.55
2018-06-05T07:50:21.750Z,99922.67
2018-06-05T07:53:24.668Z,99923.13
2018-06-05T07:56:27.598Z,99925.34
2018-06-05T07:59:30.514Z,99927.53
2018-06-05T08:02:33.387Z,99921.97
2018-06-05T08:05:36.301Z,99929.38
2018-06-05T08:08:39.237Z,99924.17
2018-06-05T08:11:42.224Z,99930.97
2018-06-05T08:14:45.144Z,99927.09
2018-06-05T08:17:48.053Z,99929.50
2018-06-05T08:20:50.954Z,99923.55
2018-06-05T08:23:53.908Z,99924.84
2018-06-05T08:26:56.824Z,99928.23
2018-06-05T08:29:59.718Z,99931.13
2018-06-05T08:33:02.677Z,99938.45
2018-06-05T08:36:05.604Z,99936.45
2018-06-05T08:39:08.602Z,99941.91
2018-06-05T08:42:11.501Z,99945.38
2018-06-05T08:45:14.484Z,99949.11
2018-06-05T08:48:17.377Z,99946.42
2018-06-05T08:51:20.318Z,99950.92
2018-06-05T08:54:23.245Z,99947.69
2018-06-05T08:57:26.177Z,99952.60
2018-06-05T09:00:29.097Z,99957.72
2018-06-05T09:03:31.994Z,99956.33
2018-06-05T09:06:34.917Z,99953.14
2018-06-05T09:09:37.843Z,99956.61
2018-06-05T09:12:40.766Z,99956.52
2018-06-05T09:15:43.676Z,99955.91
2018-06-05T09:18:46.576Z,99956.95
2018-06-05T09:21:50.369Z,99960.36
2018-06-05T09:24:53.301Z,99949.42
2018-06-05T09:27:56.237Z,99959.88
2018-06-05T09:30:59.167Z,99961.06
2018-06-05T09:34:02.110Z,99960.66
2018-06-05T09:37:05.021Z,99961.98
2018-06-05T09:40:08.002Z,99964.38
2018-06-05T09:43:10.945Z,99960.34
2018-06-05T09:46:13.842Z,99965.16
2018-06-05T09:49:16.745Z,99964.74
2018-06-05T09:52:19.661Z,99962.25
2018-06-05T09:55:22.589Z,99959.61
2018-06-05T09:58:25.698Z,99967.95
2018-06-05T10:01:28.415Z,99964.76
2018-06-05T10:04:31.372Z,99968.58
2018-06-05T10:07:34.301Z,99973.78
2018-06-05T10:10:37.201Z,99980.64
2018-06-05T10:13:40.140Z,99978.20
2018-06-05T10:16:43.054Z,99980.34
2018-06-05T10:19:45.960Z,99976.92
2018-06-05T10:22:48.872Z,99974.48
2018-06-05T10:25:51.802Z,99976.59
2018-06-05T10:28:54.682Z,99974.56
2018-06-05T10:31:57.615Z,99971.61
2018-06-05T10:35:00.514Z,99966.31
2018-06-05T10:38:03.713Z,99963.46
2018-06-05T10:41:06.666Z,99961.69
2018-06-05T10:44:09.604Z,99953.59
2018-06-05T10:47:12.508Z,99961.19
2018-06-05T10:50:15.440Z,99962.47
2018-06-05T10:53:18.387Z,99958.02
2018-06-05T10:56:21.346Z,99955.74
2018-06-05T10:59:24.875Z,99959.40
2018-06-05T11:02:27.807Z,99958.30
2018-06-05T11:05:30.718Z,99955.80
2018-06-05T11:08:33.610Z,99951.89
2018-06-05T11:11:36.529Z,99947.28
2018-06-05T11:14:39.445Z,99950.84
2018-06-05T11:17:42.364Z,99945.61
2018-06-05T11:20:45.273Z,99942.44
2018-06-05T11:23:48.236Z,99940.76
2018-06-05T11:26:51.153Z,99947.05
2018-06-05T11:29:54.076Z,99939.21
2018-06-05T11:32:56.998Z,99941.05
2018-06-05T11:35:59.924Z,99940.61
2018-06-05T11:39:04.109Z,99939.37
2018-06-05T11:42:07.010Z,99940.13
2018-06-05T11:45:09.971Z,99935.30
2018-06-05T11:48:12.902Z,99942.44
2018-06-05T11:51:15.866Z,99940.45
2018-06-05T11:54:18.820Z,99936.28
2018-06-05T11:57:21.766Z,99937.56
2018-06-05T12:00:24.712Z,99931.23
2018-06-05T12:03:27.630Z,99932.37
2018-06-05T12:06:30.545Z,99928.53
2018-06-05T12:09:33.541Z,99925.94
2018-06-05T12:12:36.469Z,99919.80
2018-06-05T12:15:39.413Z,99918.11
2018-06-05T12:18:42.324Z,99917.08
2018-06-05T12:21:45.240Z,99917.07
2018-06-05T12:24:48.131Z,99925.37
2018-06-05T12:27:51.092Z,99916.31
2018-06-05T12:30:54.021Z,99913.16
2018-06-05T12:33:56.951Z,99915.52
2018-06-05T12:36:59.969Z,99914.73
2018-06-05T12:40:02.858Z,99908.56
2018-06-05T12:43:05.892Z,99904.75
2018-06-05T12:46:08.787Z,99906.78
2018-06-05T12:49:11.740Z,99904.56
2018-06-05T12:52:14.735Z,99904.19
2018-06-05T12:55:17.639Z,99900.29
2018-06-05T12:58:20.600Z,99900.33
2018-06-05T13:01:23.516Z,99896.20
2018-06-05T13:04:26.461Z,99900.97
2018-06-05T13:07:30.166Z,99898.53
2018-06-05T13:10:33.547Z,99896.06
2018-06-05T13:13:36.829Z,99905.34
2018-06-05T13:16:40.623Z,99896.92
2018-06-05T13:19:43.692Z,99902.91
2018-06-05T13:22:46.758Z,99900.14
2018-06-05T13:25:49.613Z,99901.94
2018-06-05T13:28:52.549Z,99904.06
2018-06-05T13:31:55.548Z,99903.56
2018-06-05T13:34:58.487Z,99895.42
2018-06-05T13:38:01.468Z,99893.17
2018-06-05T13:41:04.393Z,99891.31
2018-06-05T13:44:07.438Z,99892.27
2018-06-05T13:47:10.346Z,99897.66
2018-06-05T13:50:13.261Z,99890.47
2018-06-05T13:53:16.220Z,99887.30
2018-06-05T13:56:19.131Z,99890.56
2018-06-05T13:59:22.044Z,99889.28
2018-06-05T14:02:24.979Z,99881.90
2018-06-05T14:05:27.939Z,99875.02
2018-06-05T14:08:30.858Z,99870.47
2018-06-05T14:11:33.759Z,99876.58
2018-06-05T14:14:36.717Z,99878.36
2018-06-05T14:17:39.652Z,99874.45
2018-06-05T14:20:42.620Z,99869.58
2018-06-05T14:23:45.538Z,99863.49
2018-06-05T14:26:48.478Z,99866.33
2018-06-05T14:29:51.625Z,99863.89
2018-06-05T14:32:54.537Z,99860.05
2018-06-05T14:35:57.483Z,99861.52
2018-06-05T14:39:00.500Z,99848.37
2018-06-05T14:42:03.442Z,99850.38
2018-06-05T14:45:06.408Z,99849.29
2018-06-05T14:48:09.416Z,99848.00
2018-06-05T14:51:12.325Z,99844.85
2018-06-05T14:54:15.260Z,99840.19
2018-06-05T14:57:18.161Z,99839.60
2018-06-05T15:00:21.063Z,99845.14
2018-06-05T15:03:23.974Z,99842.27
2018-06-05T15:06:26.928Z,99836.41
2018-06-05T15:09:29.833Z,99839.49
2018-06-05T15:12:32.744Z,99830.99
2018-06-05T15:15:35.669Z,99829.68
2018-06-05T15:18:38.558Z,99824.52
2018-06-05T15:21:41.488Z,99822.96
2018-06-05T15:24:44.384Z,99822.77
2018-06-05T15:27:47.344Z,99823.27
2018-06-05T15:30:50.320Z,99812.86
2018-06-05T15:33:53.297Z,99810.54
2018-06-05T15:36:56.256Z,99813.56
2018-06-05T15:39:59.153Z,99807.00
2018-06-05T15:43:02.063Z,99812.97
2018-06-05T15:46:05.167Z,99801.98
2018-06-05T15:49:08.094Z,99805.63
2018-06-05T15:52:11.005Z,99794.91
2018-06-05T15:55:13.944Z,99797.81
2018-06-05T15:58:16.869Z,99792.89
2018-06-05T16:01:19.886Z,99791.84
2018-06-05T16:04:22.869Z,99792.72
2018-06-05T16:07:25.804Z,99791.29
2018-06-05T16:10:28.750Z,99785.67
2018-06-05T16:13:31.678Z,99778.05
2018-06-05T16:16:34.577Z,99775.34
2018-06-05T16:19:37.492Z,99775.87
2018-06-05T16:22:40.430Z,99773.77
2018-06-05T16:25:43.369Z,99769.94
2018-06-05T16:28:46.257Z,99765.52
2018-06-05T16:31:49.276Z,99764.88
2018-06-05T16:34:52.190Z,99772.77
2018-06-05T16:37:55.342Z,99767.95
2018-06-05T16:40:58.733Z,99763.98
2018-06-05T16:44:02.055Z,99760.00
2018-06-05T16:47:05.089Z,99767.23
2018-06-05T16:50:08.403Z,99766.41
2018-06-05T16:53:11.344Z,99766.41
2018-06-05T16:56:14.259Z,99756.19
2018-06-05T16:59:17.230Z,99756.30
2018-06-05T17:02:21.233Z,99760.72
2018-06-05T17:05:24.179Z,99761.73
2018-06-05T17:08:27.402Z,99759.41
2018-06-05T17:11:30.611Z,99762.17
2018-06-05T17:14:33.926Z,99765.78
2018-06-05T17:17:36.893Z,99768.34
2018-06-05T17:20:40.550Z,99767.75
2018-06-05T17:23:43.918Z,99759.36
2018-06-05T17:26:48.017Z,99764.05
2018-06-05T17:29:51.009Z,99757.06
2018-06-05T17:32:54.348Z,99758.22
2018-06-05T17:35:58.158Z,99764.43
2018-06-05T17:39:02.065Z,99765.55
2018-06-05T17:42:05.434Z,99763.66
2018-06-05T17:45:09.147Z,99765.48
2018-06-05T17:48:12.710Z,99767.81
2018-06-05T17:51:16.312Z,99773.25
2018-06-05T17:54:19.392Z,99771.73
2018-06-05T17:57:22.953Z,99767.36
2018-06-05T18:00:26.339Z,99771.45
2018-06-05T18:03:29.666Z,99773.36
2018-06-05T18:06:33.189Z,99779.85
2018-06-05T18:09:36.309Z,99787.00
2018-06-05T18:12:39.235Z,99785.30
2018-06-05T18:15:42.836Z,99781.65
2018-06-05T18:18:47.052Z,99782.34
2018-06-05T18:21:51.017Z,99782.70
2018-06-05T18:24:54.516Z,99786.30
2018-06-05T18:27:57.709Z,99794.76
2018-06-05T18:31:01.150Z,99787.50
2018-06-05T18:34:04.713Z,99795.50
2018-06-05T18:37:08.611Z,99797.76
2018-06-05T18:40:11.964Z,99794.95
2018-06-05T18:43:15.812Z,99795.97
2018-06-05T18:46:19.254Z,99795.37
2018-06-05T18:49:22.828Z,99792.72
2018-06-05T18:52:26.378Z,99799.79
2018-06-05T18:55:29.915Z,99799.95
2018-06-05T18:58:33.523Z,99800.31
2018-06-05T19:01:36.711Z,99802.53
2018-06-05T19:04:40.161Z,99804.09
2018-06-05T19:07:43.857Z,99805.33
2018-06-05T19:10:47.077Z,99808.99
2018-06-05T19:13:50.347Z,99794.16
2018-06-05T19:16:53.354Z,99811.48
2018-06-05T19:19:56.907Z,99811.27
2018-06-05T19:23:00.174Z,99815.23
2018-06-05T19:26:03.420Z,99817.59
2018-06-05T19:29:07.125Z,99819.56
2018-06-05T19:32:10.522Z,99821.98
2018-06-05T19:35:13.734Z,99820.46
2018-06-05T19:38:17.110Z,99824.42
2018-06-05T19:41:22.217Z,99834.80
2018-06-05T19:44:26.582Z,99834.91
2018-06-05T19:47:29.984Z,99833.52
2018-06-05T19:50:33.061Z,99837.41
2018-06-05T19:53:36.712Z,99841.25
2018-06-05T19:56:40.387Z,99849.89
2018-06-05T19:59:44.009Z,99849.48
2018-06-05T20:02:48.116Z,99849.16
2018-06-05T20:08:53.901Z,99856.27
2018-06-05T20:11:58.205Z,99856.31
2018-06-05T20:15:01.475Z,99855.64
2018-06-05T20:18:04.776Z,99858.98
2018-06-05T20:21:08.005Z,99862.85
2018-06-05T20:24:11.787Z,99869.38
2018-06-05T20:27:15.555Z,99864.69
2018-06-05T20:30:19.014Z,99868.36
2018-06-05T20:33:22.355Z,99868.77
2018-06-05T20:36:25.380Z,99864.33
2018-06-05T20:39:28.707Z,99865.91
2018-06-05T20:42:31.615Z,99865.98
2018-06-05T20:45:34.874Z,99866.88
2018-06-05T20:48:37.798Z,99871.74
2018-06-05T20:51:40.757Z,99872.41
2018-06-05T20:54:43.675Z,99878.53
2018-06-05T20:57:46.616Z,99878.36
2018-06-05T21:00:49.569Z,99877.98
2018-06-05T21:03:52.515Z,99884.27
2018-06-05T21:06:55.442Z,99878.89
2018-06-05T21:09:58.801Z,99877.08
2018-06-05T21:13:01.738Z,99877.55
2018-06-05T21:16:04.704Z,99877.85
2018-06-05T21:19:07.618Z,99882.75
2018-06-05T21:22:11.233Z,99878.92
2018-06-05T21:25:14.268Z,99884.11
2018-06-05T21:28:17.195Z,99879.30
2018-06-05T21:31:20.185Z,99887.66
2018-06-05T21:34:23.172Z,99889.47
2018-06-05T21:37:26.250Z,99889.38
2018-06-05T21:40:29.228Z,99892.93
2018-06-05T21:43:32.354Z,99891.11
2018-06-05T21:46:35.694Z,99888.02
2018-06-05T21:49:38.877Z,99896.30
2018-06-05T21:52:41.818Z,99889.27
2018-06-05T21:55:44.758Z,99894.31
2018-06-05T21:58:47.749Z,99890.23
2018-06-05T22:01:50.694Z,99885.63
2018-06-05T22:04:53.638Z,99890.95
2018-06-05T22:08:00.538Z,99888.16
2018-06-05T22:11:03.557Z,99885.58
2018-06-05T22:14:08.778Z,99881.64
2018-06-05T22:17:11.677Z,99879.53
2018-06-05T22:20:14.595Z,99868.70
2018-06-05T22:23:17.498Z,99877.03
2018-06-05T22:26:20.928Z,99872.14
2018-06-05T22:29:24.871Z,99880.67
2018-06-05T22:32:27.814Z,99875.12
2018-06-05T22:35:30.761Z,99878.74
2018-06-05T22:38:33.677Z,99880.00
2018-06-05T22:41:36.600Z,99871.95
2018-06-05T22:44:39.506Z,99867.45
2018-06-05T22:47:42.429Z,99874.45
2018-06-05T22:50:45.340Z,99875.96
2018-06-05T22:53:48.263Z,99870.17
2018-06-05T22:56:51.240Z,99862.63
2018-06-05T22:59:54.161Z,99859.87
2018-06-05T23:02:57.091Z,99864.73
2018-06-05T23:05:59.989Z,99862.63
2018-06-05T23:09:03.550Z,99863.39
2018-06-05T23:12:06.478Z,99872.36
2018-06-05T23:15:09.406Z,99869.59
2018-06-05T23:18:12.300Z,99861.56
2018-06-05T23:21:15.244Z,99851.09
2018-06-05T23:24:18.171Z,99859.34
2018-06-05T23:27:21.166Z,99866.83
2018-06-05T23:30:24.048Z,99864.08
2018-06-05T23:33:26.992Z,99864.16
2018-06-05T23:36:29.925Z,99866.13
2018-06-05T23:39:32.862Z,99867.55
2018-06-05T23:42:35.801Z,99864.20
2018-06-05T23:45:38.745Z,99862.07
2018-06-05T23:48:41.729Z,99863.34
2018-06-05T23:51:44.661Z,99864.56
2018-06-05T23:54:47.575Z,99863.02
2018-06-05T23:57:50.517Z,99857.73
